Time;durP1;ratioP1;P1;durP2;ratioP2;P2;SDS_P1;SDS_P2;PMS_P1;PMS_P2;Temp;Humidity;BMP_temperature;BMP_pressure;BME280_temperature;BME280_humidity;BME280_pressure;Samples;Min_cycle;Max_cycle;Signal;HPM_P1;HPM_P2
2021/12/28 09:23:22;;;;;;;;;;;;;;;8.20;96.89;95956.19;4241425;27;10195;-69
2021/12/28 09:25:46;;;;;;;;;;;;;;;8.00;96.62;95948.22;4226418;28;5717;-69
2021/12/28 09:27:53;;;;;;;;;;;;;;;7.89;97.94;95949.59;4191285;28;5825;-68
2021/12/28 09:29:55;;;;;;;;;;;;;;;7.68;97.83;95954.97;4210243;28;5808;-68
2021/12/28 09:31:58;;;;;;;;;;;;;;;7.92;97.76;95964.16;4230444;28;5812;-69
2021/12/28 09:34:02;;;;;;;;;;;;;;;8.05;97.01;95963.44;4230820;28;5702;-68
2021/12/28 09:36:27;;;;;;;;;;;;;;;8.18;96.71;95959.03;4205042;28;5725;-69
2021/12/28 09:38:30;;;;;;;;;;;;;;;8.12;96.46;95956.34;4216168;28;5627;-69
2021/12/28 09:40:35;;;;;;;;;;;;;;;8.18;96.53;95966.91;4226085;28;5624;-69
2021/12/28 09:42:38;;;;;;;;;;;;;;;8.19;96.46;95962.47;4226694;28;5773;-69
2021/12/28 09:44:43;;;;;;;;;;;;;;;8.07;96.68;95970.13;4211776;28;5724;-69
2021/12/28 09:46:46;;;;;;;;;;;;;;;8.15;97.05;95953.31;4228881;28;5722;-69
2021/12/28 09:48:53;;;;;;;;;;;;;;;8.29;96.31;95975.25;4202258;28;5108;-69
2021/12/28 09:50:56;;;;;;;;;;;;;;;8.19;96.34;95978.25;4224013;28;5707;-69
2021/12/28 09:53:00;;;;;;;;;;;;;;;8.25;96.44;95974.00;4211484;28;5903;-69
2021/12/28 09:55:02;;;;;;;;;;;;;;;8.06;96.62;95971.13;4210676;28;5692;-68
2021/12/28 09:57:04;;;;;;;;;;;;;;;7.99;97.67;95974.75;4230041;28;5822;-68
2021/12/28 09:59:07;;;;;;;;;;;;;;;8.18;96.59;95968.75;4217532;28;5733;-69
2021/12/28 10:01:10;;;;;;;;;;;;;;;8.32;96.08;95974.84;4192068;28;5828;-68
2021/12/28 10:03:13;;;;;;;;;;;;;;;8.36;95.80;95971.63;4208729;28;5733;-69
2021/12/28 10:05:19;;;;;;;;;;;;;;;8.40;95.69;95972.06;4208941;28;5758;-70
2021/12/28 10:07:24;;;;;;;;;;;;;;;8.28;96.20;95960.47;4205357;28;7019;-69
2021/12/28 10:09:26;;;;;;;;;;;;;;;8.41;95.83;95973.69;4211101;28;5743;-69
2021/12/28 10:11:48;;;;;;;;;;;;;;;8.28;96.54;95976.28;4184237;28;5937;-69
2021/12/28 10:13:49;;;;;;;;;;;;;;;8.36;95.90;95971.63;4203753;23;5873;-70
2021/12/28 10:15:53;;;;;;;;;;;;;;;8.38;95.21;95969.66;4193569;28;5753;-69
2021/12/28 10:17:58;;;;;;;;;;;;;;;8.40;95.58;95972.06;4190974;28;5856;-70
2021/12/28 10:20:05;;;;;;;;;;;;;;;8.47;95.30;95978.16;4210026;28;5723;-69
2021/12/28 10:22:44;;;;;;;;;;;;;;;8.47;95.42;95980.78;4208877;28;5803;-69
2021/12/28 10:24:48;;;;;;;;;;;;;;;8.45;95.42;95988.88;4146005;28;6745;-69
2021/12/28 10:27:16;;;;;;;;;;;;;;;8.45;95.65;95974.91;4198329;28;6692;-70
2021/12/28 10:29:30;;;;;;;;;;;;;;;8.40;95.88;95988.69;4188375;28;6076;-69
2021/12/28 10:31:32;;;;;;;;;;;;;;;8.27;96.44;95982.50;4191906;28;5908;-70
2021/12/28 10:33:36;;;;;;;;;;;;;;;8.07;97.46;95983.28;4183365;28;5830;-72
2021/12/28 10:35:42;;;;;;;;;;;;;;;7.93;98.82;95980.78;4193912;28;5912;-72
2021/12/28 10:37:51;;;;;;;;;;;;;;;7.85;99.36;95973.88;4197846;28;5981;-71
2021/12/28 10:39:56;;;;;;;;;;;;;;;8.08;98.67;95982.28;4197567;28;7691;-71
2021/12/28 10:41:58;;;;;;;;;;;;;;;8.23;97.68;95997.09;4195091;28;5793;-72
2021/12/28 10:44:00;;;;;;;;;;;;;;;8.26;97.70;95986.97;4179686;28;5792;-73
2021/12/28 10:46:05;;;;;;;;;;;;;;;8.37;96.98;95990.88;4179249;28;5756;-71
2021/12/28 10:48:16;;;;;;;;;;;;;;;8.44;96.74;95974.09;4197100;28;5784;-73
2021/12/28 10:50:28;;;;;;;;;;;;;;;8.48;96.60;95990.31;4178255;28;5874;-72
2021/12/28 10:52:37;;;;;;;;;;;;;;;8.33;97.57;95968.56;4195211;28;5758;-69
2021/12/28 10:54:44;;;;;;;;;;;;;;;8.18;98.46;95990.63;4192660;28;5822;-72
2021/12/28 10:56:52;;;;;;;;;;;;;;;8.37;97.72;95983.78;4197595;22;6514;-70
2021/12/28 10:58:54;;;;;;;;;;;;;;;8.45;97.33;95996.78;4186656;28;5948;-71
2021/12/28 11:01:04;;;;;;;;;;;;;;;8.49;97.41;95985.84;4186777;28;5657;-75
2021/12/28 11:03:17;;;;;;;;;;;;;;;8.50;97.40;95988.31;4180793;28;5863;-73
2021/12/28 11:05:39;;;;;;;;;;;;;;;8.54;97.20;95988.72;4181715;28;5821;-72
2021/12/28 11:07:55;;;;;;;;;;;;;;;8.64;97.31;95997.03;4180364;28;5860;-67
2021/12/28 11:10:01;;;;;;;;;;;;;;;8.59;97.30;96002.91;4184365;28;6011;-70
2021/12/28 11:12:03;;;;;;;;;;;;;;;8.62;97.15;96012.25;4179268;28;5837;-75
2021/12/28 11:14:08;;;;;;;;;;;;;;;8.59;97.08;96010.78;4183421;28;5833;-67
2021/12/28 11:16:12;;;;;;;;;;;;;;;8.56;96.84;95992.75;4183174;28;5802;-67
2021/12/28 11:18:29;;;;;;;;;;;;;;;8.67;96.61;96007.97;4181562;28;5757;-66
2021/12/28 11:20:31;;;;;;;;;;;;;;;8.71;94.83;96005.75;4190860;28;5723;-66
2021/12/28 11:22:34;;;;;;;;;;;;;;;8.62;95.12;96007.78;4188528;28;5788;-67
2021/12/28 11:24:43;;;;;;;;;;;;;;;8.52;96.27;96004.72;4193144;28;5805;-66
2021/12/28 11:26:50;;;;;;;;;;;;;;;8.67;95.86;96010.63;4186018;28;5909;-66
2021/12/28 11:28:59;;;;;;;;;;;;;;;8.77;95.42;96012.88;4187377;28;5824;-66
2021/12/28 11:31:03;;;;;;;;;;;;;;;8.83;94.38;96014.69;4187322;28;5777;-66
2021/12/28 11:33:07;;;;;;;;;;;;;;;8.83;94.46;96021.78;4192565;28;5878;-66
2021/12/28 11:35:08;;;;;;;;;;;;;;;8.80;94.71;96015.09;4185967;28;5891;-66
2021/12/28 11:37:18;;;;;;;;;;;;;;;8.72;95.10;96023.19;4183629;28;5785;-67
2021/12/28 11:39:27;;;;;;;;;;;;;;;8.62;95.66;96013.06;4193615;28;7608;-67
2021/12/28 11:41:28;;;;;;;;;;;;;;;8.73;95.49;96014.28;4193087;28;5800;-66
2021/12/28 11:43:32;;;;;;;;;;;;;;;8.61;95.28;96010.63;4183817;28;6641;-68
2021/12/28 11:45:37;;;;;;;;;;;;;;;8.68;95.24;96014.88;4193323;28;5797;-67
2021/12/28 11:47:42;;;;;;;;;;;;;;;8.80;95.99;96017.72;4197764;28;5800;-67
2021/12/28 11:49:45;;;;;;;;;;;;;;;8.86;95.48;96032.75;4192872;28;5809;-67
2021/12/28 11:51:48;;;;;;;;;;;;;;;8.90;95.15;96031.34;4155315;28;5771;-67
2021/12/28 11:53:52;;;;;;;;;;;;;;;8.92;94.94;96045.13;4190973;28;5846;-67
2021/12/28 11:55:59;;;;;;;;;;;;;;;8.78;95.77;96053.22;4187250;28;5849;-67
2021/12/28 11:58:01;;;;;;;;;;;;;;;8.74;95.45;96042.25;4180705;28;5753;-68
2021/12/28 12:00:05;;;;;;;;;;;;;;;8.78;95.46;96058.47;4184599;28;5857;-68
2021/12/28 12:02:11;;;;;;;;;;;;;;;8.91;95.08;96054.03;4190291;28;5817;-68
2021/12/28 12:04:46;;;;;;;;;;;;;;;8.98;94.87;96060.16;4190659;28;5777;-68
2021/12/28 12:07:15;;;;;;;;;;;;;;;8.89;95.43;96055.25;4188021;28;5923;-67
2021/12/28 12:09:17;;;;;;;;;;;;;;;8.97;95.14;96052.44;4188197;28;5785;-67
2021/12/28 12:11:21;;;;;;;;;;;;;;;8.99;95.36;96058.31;4187374;28;5792;-67
2021/12/28 12:13:27;;;;;;;;;;;;;;;9.04;95.31;96066.44;4187052;28;5817;-67
2021/12/28 12:15:38;;;;;;;;;;;;;;;9.03;95.67;96062.16;4187489;28;5831;-68
2021/12/28 12:17:45;;;;;;;;;;;;;;;9.06;95.16;96080.25;4195096;28;5734;-67
2021/12/28 12:19:50;;;;;;;;;;;;;;;9.10;95.23;96097.28;4190290;28;5781;-68
2021/12/28 12:22:32;;;;;;;;;;;;;;;9.03;96.06;96096.44;4189931;28;5804;-67
2021/12/28 12:24:36;;;;;;;;;;;;;;;8.96;97.00;96082.44;4193461;28;8220;-66
2021/12/28 12:26:37;;;;;;;;;;;;;;;9.00;94.00;96065.22;4183296;28;5750;-65
2021/12/28 12:28:44;;;;;;;;;;;;;;;9.05;93.15;96031.94;4185048;28;5826;-65
2021/12/28 12:30:49;;;;;;;;;;;;;;;9.06;91.57;95995.88;4175198;28;5768;-66
2021/12/28 12:33:06;;;;;;;;;;;;;;;9.17;92.04;96021.59;4189808;28;5818;-67
2021/12/28 12:35:55;;;;;;;;;;;;;;;9.21;91.39;96022.84;4190329;28;5771;-67
2021/12/28 12:38:24;;;;;;;;;;;;;;;9.28;91.03;96015.72;4182586;28;5793;-67
2021/12/28 12:40:50;;;;;;;;;;;;;;;9.34;90.81;96003.56;4187418;28;5822;-67
2021/12/28 12:43:14;;;;;;;;;;;;;;;9.40;89.10;96015.09;4187028;28;5864;-67
2021/12/28 12:46:05;;;;;;;;;;;;;;;9.41;88.73;96028.13;4191580;28;5776;-67
2021/12/28 12:48:08;;;;;;;;;;;;;;;9.48;88.67;96025.44;4188656;28;5817;-67
2021/12/28 12:50:11;;;;;;;;;;;;;;;9.52;87.51;96021.41;4186774;28;5841;-68
2021/12/28 12:52:17;;;;;;;;;;;;;;;9.54;87.08;96028.09;4202143;22;6305;-68
2021/12/28 12:54:38;;;;;;;;;;;;;;;9.60;87.18;96021.16;4177610;28;5869;-67
2021/12/28 12:56:44;;;;;;;;;;;;;;;9.62;88.16;96019.94;4176149;28;5841;-68
2021/12/28 12:58:50;;;;;;;;;;;;;;;9.56;87.77;96010.22;4174640;28;5877;-67
2021/12/28 13:00:52;;;;;;;;;;;;;;;9.59;88.95;96027.47;4172582;28;5798;-65
2021/12/28 13:03:00;;;;;;;;;;;;;;;9.63;89.14;96028.69;4171855;28;5889;-65
2021/12/28 13:05:13;;;;;;;;;;;;;;;9.63;89.45;96026.88;4183325;28;5890;-66
2021/12/28 13:07:25;;;;;;;;;;;;;;;9.65;89.58;96036.41;4176585;28;5817;-68
2021/12/28 13:09:30;;;;;;;;;;;;;;;9.68;89.91;96034.16;4163618;28;8639;-68
2021/12/28 13:11:33;;;;;;;;;;;;;;;9.67;89.78;96027.25;4167465;28;5831;-66
2021/12/28 13:13:40;;;;;;;;;;;;;;;9.60;89.78;96011.44;4167339;28;6470;-65
2021/12/28 13:15:41;;;;;;;;;;;;;;;9.65;90.09;96010.81;4166783;28;5845;-65
2021/12/28 13:18:04;;;;;;;;;;;;;;;9.66;90.50;96012.44;4162719;28;5839;-65
2021/12/28 13:20:11;;;;;;;;;;;;;;;9.65;90.18;96008.19;4166634;28;5988;-64
2021/12/28 13:22:14;;;;;;;;;;;;;;;9.62;90.79;96008.56;4164010;28;5843;-64
2021/12/28 13:24:16;;;;;;;;;;;;;;;9.60;90.52;95986.88;4165689;28;5815;-64
2021/12/28 13:26:17;;;;;;;;;;;;;;;9.66;90.54;95991.34;4168977;28;5838;-65
2021/12/28 13:28:24;;;;;;;;;;;;;;;9.63;90.06;95982.00;4170592;28;5938;-65
2021/12/28 13:30:31;;;;;;;;;;;;;;;9.68;90.47;95991.13;4163910;28;5846;-65
2021/12/28 13:32:44;;;;;;;;;;;;;;;9.66;90.38;95996.63;4170446;28;6038;-65
2021/12/28 13:35:01;;;;;;;;;;;;;;;9.68;90.58;95997.22;4167938;28;5940;-65
2021/12/28 13:37:03;;;;;;;;;;;;;;;9.67;90.16;96000.06;4161809;28;5932;-65
2021/12/28 13:39:06;;;;;;;;;;;;;;;9.60;89.56;96002.69;4174946;28;7433;-65
2021/12/28 13:41:07;;;;;;;;;;;;;;;9.55;89.39;95998.06;4166128;28;5779;-65
2021/12/28 13:43:19;;;;;;;;;;;;;;;9.56;89.56;95993.59;4164306;28;5836;-65
2021/12/28 13:45:43;;;;;;;;;;;;;;;9.55;89.41;96010.44;4164881;28;6030;-65
2021/12/28 13:47:45;;;;;;;;;;;;;;;9.54;89.44;96022.00;4143764;28;5915;-65
2021/12/28 13:50:05;;;;;;;;;;;;;;;9.52;89.89;95987.91;4165704;28;5772;-65
2021/12/28 13:52:06;;;;;;;;;;;;;;;9.53;90.29;95986.09;4170818;28;5100;-65
2021/12/28 13:54:11;;;;;;;;;;;;;;;9.60;90.18;95995.59;4163705;28;5768;-65
2021/12/28 13:56:19;;;;;;;;;;;;;;;9.61;90.06;95985.84;4180230;28;5983;-65
2021/12/28 13:58:24;;;;;;;;;;;;;;;9.53;90.06;95975.53;4181031;28;5858;-66
2021/12/28 14:00:34;;;;;;;;;;;;;;;9.55;90.04;95973.50;4165684;28;5776;-65
2021/12/28 14:02:38;;;;;;;;;;;;;;;9.56;90.32;95978.56;4183279;28;5863;-65
2021/12/28 14:04:40;;;;;;;;;;;;;;;9.57;90.64;95984.66;4185832;28;5911;-66
2021/12/28 14:06:45;;;;;;;;;;;;;;;9.59;90.16;95993.16;4198801;28;5860;-65
2021/12/28 14:08:47;;;;;;;;;;;;;;;9.54;90.72;96024.66;4199792;28;5833;-65
2021/12/28 14:10:53;;;;;;;;;;;;;;;9.55;91.14;96026.28;4191074;28;5901;-65
2021/12/28 14:13:04;;;;;;;;;;;;;;;9.54;91.23;95995.63;4165802;28;5764;-66
2021/12/28 14:15:14;;;;;;;;;;;;;;;9.53;91.36;95992.19;4183250;28;5851;-65
2021/12/28 14:17:19;;;;;;;;;;;;;;;9.52;91.54;96005.56;4187556;28;5930;-65
2021/12/28 14:19:26;;;;;;;;;;;;;;;9.47;91.77;96026.47;4165441;28;5736;-65
2021/12/28 14:21:30;;;;;;;;;;;;;;;9.42;92.02;96037.66;4182955;28;5942;-65
2021/12/28 14:23:33;;;;;;;;;;;;;;;9.44;92.07;96042.72;4165022;28;5796;-65
2021/12/28 14:25:34;;;;;;;;;;;;;;;9.45;92.27;96028.50;4183103;28;5879;-65
2021/12/28 14:27:36;;;;;;;;;;;;;;;9.42;93.37;96007.81;4187095;28;5879;-65
2021/12/28 14:29:38;;;;;;;;;;;;;;;9.39;93.52;96031.94;4192801;28;5850;-64
2021/12/28 14:31:43;;;;;;;;;;;;;;;9.37;92.96;96041.91;4181350;28;5903;-65
2021/12/28 14:33:49;;;;;;;;;;;;;;;9.36;92.86;96035.81;4182502;28;5863;-64
2021/12/28 14:35:51;;;;;;;;;;;;;;;9.34;93.96;96038.66;4185455;28;5867;-64
2021/12/28 14:37:53;;;;;;;;;;;;;;;9.32;93.73;96048.59;4185514;28;5823;-63
2021/12/28 14:39:55;;;;;;;;;;;;;;;9.28;94.23;96055.28;4187432;28;6598;-64
2021/12/28 14:42:12;;;;;;;;;;;;;;;9.25;94.95;96070.72;4187769;28;5855;-63
2021/12/28 14:44:18;;;;;;;;;;;;;;;9.24;93.33;96063.81;4177053;28;5766;-63
2021/12/28 14:46:29;;;;;;;;;;;;;;;9.21;91.74;96045.75;4182648;28;5859;-64
2021/12/28 14:48:32;;;;;;;;;;;;;;;9.19;88.33;96045.97;4182267;28;5960;-64
2021/12/28 14:50:36;;;;;;;;;;;;;;;9.20;87.65;96041.50;4182840;28;5859;-65
2021/12/28 14:52:39;;;;;;;;;;;;;;;9.10;89.21;96030.53;4182569;28;5851;-64
2021/12/28 14:55:30;;;;;;;;;;;;;;;9.03;90.41;96031.34;4182654;28;5863;-64
2021/12/28 14:57:40;;;;;;;;;;;;;;;9.02;88.85;96042.09;4127805;28;5859;-64
2021/12/28 14:59:49;;;;;;;;;;;;;;;9.01;90.27;96032.56;4182681;28;5863;-64
2021/12/28 15:01:56;;;;;;;;;;;;;;;9.05;88.46;96007.41;4209198;22;6021;-65
2021/12/28 15:04:00;;;;;;;;;;;;;;;9.11;89.19;96035.63;4192168;28;6699;-65
2021/12/28 15:06:05;;;;;;;;;;;;;;;9.09;90.76;96021.81;4169742;28;5757;-65
2021/12/28 15:08:10;;;;;;;;;;;;;;;9.07;89.25;96010.69;4195804;28;5851;-65
2021/12/28 15:10:18;;;;;;;;;;;;;;;9.09;89.40;96013.09;4198153;28;5854;-65
2021/12/28 15:12:21;;;;;;;;;;;;;;;9.09;90.57;96008.63;4198167;28;5842;-65
2021/12/28 15:14:31;;;;;;;;;;;;;;;9.11;91.46;95996.06;4198954;28;5882;-65
2021/12/28 15:16:34;;;;;;;;;;;;;;;9.15;89.43;96007.81;4197409;28;7029;-65
2021/12/28 15:18:37;;;;;;;;;;;;;;;9.21;89.92;96007.03;4191344;28;5986;-65
2021/12/28 15:20:40;;;;;;;;;;;;;;;9.24;88.82;96008.44;4178539;28;5762;-64
2021/12/28 15:22:44;;;;;;;;;;;;;;;9.25;89.19;96029.31;4188706;28;5955;-65
2021/12/28 15:24:46;;;;;;;;;;;;;;;9.26;89.21;96025.66;4188400;28;5864;-65
2021/12/28 15:26:49;;;;;;;;;;;;;;;9.31;89.40;96035.63;4186492;28;5863;-65
2021/12/28 15:28:51;;;;;;;;;;;;;;;9.22;89.88;96019.19;4193329;28;5830;-64
2021/12/28 15:30:55;;;;;;;;;;;;;;;9.26;90.40;96027.50;4193256;28;6001;-64
2021/12/28 15:32:58;;;;;;;;;;;;;;;9.24;88.41;96018.97;4183588;28;5852;-64
2021/12/28 15:35:00;;;;;;;;;;;;;;;9.21;85.31;96040.50;4185836;28;5851;-63
2021/12/28 15:37:03;;;;;;;;;;;;;;;9.13;86.02;96057.31;4174772;28;5760;-64
2021/12/28 15:39:06;;;;;;;;;;;;;;;9.18;86.76;96060.19;4176960;28;5761;-64
2021/12/28 15:41:10;;;;;;;;;;;;;;;9.10;87.77;96049.00;4194701;28;5834;-63
2021/12/28 15:43:12;;;;;;;;;;;;;;;9.13;88.60;96059.13;4186557;28;5884;-63
2021/12/28 15:45:16;;;;;;;;;;;;;;;9.16;88.54;96064.81;4189843;28;5868;-63
2021/12/28 15:47:20;;;;;;;;;;;;;;;9.16;89.17;96067.44;4169417;28;5661;-63
2021/12/28 15:49:22;;;;;;;;;;;;;;;9.02;90.04;96069.25;4192661;28;5843;-65
2021/12/28 15:51:25;;;;;;;;;;;;;;;9.16;89.52;96072.72;4195222;28;5170;-65
2021/12/28 15:53:28;;;;;;;;;;;;;;;9.21;89.52;96067.69;4187068;28;6042;-66
2021/12/28 15:55:32;;;;;;;;;;;;;;;9.12;90.51;96070.69;4165866;28;5793;-65
2021/12/28 15:57:34;;;;;;;;;;;;;;;9.06;90.54;96085.53;4198336;23;5825;-64
2021/12/28 15:59:37;;;;;;;;;;;;;;;9.10;90.57;96088.56;4169660;28;5856;-64
2021/12/28 16:01:41;;;;;;;;;;;;;;;9.16;90.21;96093.81;4189437;28;5738;-65
2021/12/28 16:03:45;;;;;;;;;;;;;;;9.09;90.84;96103.56;4195006;28;6334;-65
2021/12/28 16:05:49;;;;;;;;;;;;;;;9.02;91.30;96103.53;4194445;28;5713;-65
2021/12/28 16:07:53;;;;;;;;;;;;;;;9.04;91.35;96117.31;4196297;28;5746;-65
2021/12/28 16:09:58;;;;;;;;;;;;;;;9.04;91.49;96122.59;4196175;28;5718;-65
2021/12/28 16:12:02;;;;;;;;;;;;;;;8.99;92.16;96125.03;4191063;28;5757;-65
2021/12/28 16:14:04;;;;;;;;;;;;;;;8.88;93.08;96120.34;4196280;28;5731;-65
2021/12/28 16:16:08;;;;;;;;;;;;;;;8.81;94.17;96113.41;4175503;28;5889;-65
2021/12/28 16:18:11;;;;;;;;;;;;;;;8.83;94.32;96112.19;4198238;28;5647;-65
2021/12/28 16:20:15;;;;;;;;;;;;;;;8.89;93.83;96118.53;4182822;28;5845;-65
2021/12/28 16:22:19;;;;;;;;;;;;;;;8.88;94.02;96119.53;4195552;28;5650;-65
2021/12/28 16:24:21;;;;;;;;;;;;;;;8.82;94.75;96115.03;4193922;28;5734;-65
2021/12/28 16:26:23;;;;;;;;;;;;;;;8.88;94.01;96111.63;4191316;28;5754;-65
2021/12/28 16:28:27;;;;;;;;;;;;;;;8.88;94.29;96138.00;4197700;28;5746;-65
2021/12/28 16:30:30;;;;;;;;;;;;;;;8.83;94.71;96137.75;4191596;28;5748;-66
2021/12/28 16:32:33;;;;;;;;;;;;;;;8.54;96.24;96152.03;4171296;28;5877;-65
2021/12/28 16:34:36;;;;;;;;;;;;;;;8.59;95.80;96154.88;4164355;28;5846;-65
2021/12/28 16:36:43;;;;;;;;;;;;;;;8.67;95.47;96157.38;4169445;28;5718;-65
2021/12/28 16:38:45;;;;;;;;;;;;;;;8.66;95.41;96161.81;4170107;28;5905;-65
2021/12/28 16:40:47;;;;;;;;;;;;;;;8.63;95.60;96162.22;4190859;28;5752;-65
2021/12/28 16:42:49;;;;;;;;;;;;;;;8.55;95.50;96186.09;4164413;28;5882;-65
2021/12/28 16:44:51;;;;;;;;;;;;;;;8.58;95.32;96190.16;4189817;28;5635;-65
2021/12/28 16:46:55;;;;;;;;;;;;;;;8.48;95.93;96190.50;4192156;28;5194;-65
2021/12/28 16:48:57;;;;;;;;;;;;;;;8.57;95.57;96186.72;4185729;28;7664;-65
2021/12/28 16:50:59;;;;;;;;;;;;;;;8.51;95.86;96198.03;4193618;28;5630;-65
2021/12/28 16:53:04;;;;;;;;;;;;;;;8.25;98.05;96203.09;4184735;28;5634;-65
2021/12/28 16:55:08;;;;;;;;;;;;;;;8.34;97.19;96215.13;4196460;28;5698;-65
2021/12/28 16:57:10;;;;;;;;;;;;;;;8.48;96.45;96216.84;4188640;28;5734;-65
2021/12/28 16:59:13;;;;;;;;;;;;;;;8.36;97.15;96229.75;4189691;28;6467;-66
2021/12/28 17:01:15;;;;;;;;;;;;;;;8.36;97.17;96235.00;4184567;28;5785;-65
2021/12/28 17:03:18;;;;;;;;;;;;;;;8.45;96.42;96233.03;4193354;28;5662;-65
2021/12/28 17:05:23;;;;;;;;;;;;;;;8.42;96.38;96222.91;4188116;28;5650;-65
2021/12/28 17:07:24;;;;;;;;;;;;;;;8.33;96.47;96224.03;4177988;28;5707;-66
2021/12/28 17:09:26;;;;;;;;;;;;;;;8.39;95.95;96210.13;4174075;28;5665;-66
2021/12/28 17:11:39;;;;;;;;;;;;;;;8.44;95.22;96215.63;4196379;28;5647;-65
2021/12/28 17:13:41;;;;;;;;;;;;;;;8.38;95.33;96219.00;4188352;28;5611;-66
2021/12/28 17:15:44;;;;;;;;;;;;;;;8.42;94.96;96217.63;4177295;28;5784;-65
2021/12/28 17:17:47;;;;;;;;;;;;;;;8.38;95.21;96211.09;4187992;28;6374;-65
2021/12/28 17:19:49;;;;;;;;;;;;;;;8.35;94.87;96216.78;4196590;28;5674;-65
2021/12/28 17:21:51;;;;;;;;;;;;;;;8.33;94.82;96216.94;4171202;28;5839;-66
2021/12/28 17:23:52;;;;;;;;;;;;;;;8.25;95.22;96226.78;4174680;28;5834;-66
2021/12/28 17:25:54;;;;;;;;;;;;;;;8.08;96.10;96232.38;4200542;22;5639;-66
2021/12/28 17:27:56;;;;;;;;;;;;;;;8.21;95.92;96225.56;4197045;28;6322;-66
2021/12/28 17:29:58;;;;;;;;;;;;;;;8.22;95.56;96232.47;4200056;28;5718;-66
2021/12/28 17:32:02;;;;;;;;;;;;;;;8.23;96.01;96239.34;4179846;28;5850;-66
2021/12/28 17:34:05;;;;;;;;;;;;;;;8.20;96.09;96239.75;4197778;28;5649;-66
2021/12/28 17:36:08;;;;;;;;;;;;;;;8.17;96.31;96248.84;4178735;28;5774;-66
2021/12/28 17:38:10;;;;;;;;;;;;;;;8.20;96.95;96242.38;4182346;28;5859;-65
2021/12/28 17:40:15;;;;;;;;;;;;;;;8.13;97.26;96245.75;4187040;28;5673;-65
2021/12/28 17:42:16;;;;;;;;;;;;;;;8.20;96.68;96240.56;4182340;28;5642;-66
2021/12/28 17:44:18;;;;;;;;;;;;;;;8.04;98.05;96240.81;4186286;28;5649;-65
2021/12/28 17:46:20;;;;;;;;;;;;;;;8.04;97.95;96236.38;4168129;28;5853;-66
2021/12/28 17:48:23;;;;;;;;;;;;;;;7.94;99.08;96241.16;4185825;28;5649;-66
2021/12/28 17:50:27;;;;;;;;;;;;;;;7.95;98.46;96244.63;4184449;28;5996;-66
2021/12/28 17:52:29;;;;;;;;;;;;;;;8.01;97.95;96235.94;4164492;28;5745;-66
2021/12/28 17:54:31;;;;;;;;;;;;;;;8.17;95.79;96236.50;4162223;28;6014;-64
2021/12/28 17:56:33;;;;;;;;;;;;;;;8.09;95.05;96231.34;4179004;28;5645;-65
2021/12/28 17:58:34;;;;;;;;;;;;;;;8.07;94.17;96233.38;4178480;28;6094;-65
2021/12/28 18:00:40;;;;;;;;;;;;;;;8.04;94.84;96231.13;4181070;28;5947;-66
2021/12/28 18:02:47;;;;;;;;;;;;;;;8.10;94.49;96213.75;4184961;28;5717;-66
2021/12/28 18:04:53;;;;;;;;;;;;;;;8.04;94.62;96204.81;4182636;28;5642;-70
2021/12/28 18:06:55;;;;;;;;;;;;;;;8.08;94.11;96206.03;4167016;28;5747;-69
2021/12/28 18:08:56;;;;;;;;;;;;;;;8.01;94.80;96220.97;4183266;28;5665;-68
2021/12/28 18:10:58;;;;;;;;;;;;;;;7.85;94.95;96216.78;4149617;28;5979;-68
2021/12/28 18:13:00;;;;;;;;;;;;;;;7.95;94.16;96213.03;4184480;28;5653;-68
2021/12/28 18:15:04;;;;;;;;;;;;;;;8.09;93.61;96220.00;4162055;28;6403;-67
2021/12/28 18:17:05;;;;;;;;;;;;;;;7.97;92.99;96227.63;4160931;28;5782;-66
2021/12/28 18:19:09;;;;;;;;;;;;;;;8.07;92.67;96225.47;4178048;28;5883;-70
2021/12/28 18:21:11;;;;;;;;;;;;;;;8.02;91.48;96227.84;4184180;28;6204;-69
2021/12/28 18:23:14;;;;;;;;;;;;;;;7.97;92.17;96240.78;4165138;28;5732;-69
2021/12/28 18:25:19;;;;;;;;;;;;;;;8.07;90.94;96233.38;4185898;28;5809;-69
2021/12/28 18:27:21;;;;;;;;;;;;;;;8.07;90.47;96232.56;4184154;28;5650;-68
2021/12/28 18:29:25;;;;;;;;;;;;;;;8.07;89.49;96236.00;4150762;28;6438;-67
2021/12/28 18:31:27;;;;;;;;;;;;;;;8.05;89.97;96232.75;4187248;28;5903;-68
2021/12/28 18:33:29;;;;;;;;;;;;;;;7.96;87.46;96228.63;4165248;22;5982;-69
2021/12/28 18:35:37;;;;;;;;;;;;;;;8.08;86.00;96232.38;4148201;28;5746;-68
2021/12/28 18:37:38;;;;;;;;;;;;;;;8.13;86.84;96229.97;4141990;28;5787;-68
2021/12/28 18:39:40;;;;;;;;;;;;;;;8.16;86.22;96234.06;4129496;28;5832;-68
2021/12/28 18:41:42;;;;;;;;;;;;;;;8.17;85.90;96246.22;4145502;28;5889;-66
2021/12/28 18:43:45;;;;;;;;;;;;;;;8.20;85.42;96239.75;4150174;28;5971;-68
2021/12/28 18:45:49;;;;;;;;;;;;;;;8.29;87.14;96242.03;4151885;28;6053;-67
2021/12/28 18:47:52;;;;;;;;;;;;;;;8.38;86.87;96248.81;4152483;28;5762;-68
2021/12/28 18:49:54;;;;;;;;;;;;;;;8.40;86.28;96246.00;4151994;28;5125;-69
2021/12/28 18:51:58;;;;;;;;;;;;;;;8.34;85.06;96239.66;4151423;28;5808;-68
2021/12/28 18:54:03;;;;;;;;;;;;;;;8.37;84.69;96244.53;4151793;28;5877;-68
2021/12/28 18:56:08;;;;;;;;;;;;;;;8.42;84.61;96239.53;4148963;28;6479;-66
2021/12/28 18:58:09;;;;;;;;;;;;;;;8.46;85.35;96243.38;4152877;28;5938;-66
2021/12/28 19:00:15;;;;;;;;;;;;;;;8.51;85.11;96242.00;4144907;28;5820;-67
2021/12/28 19:02:17;;;;;;;;;;;;;;;8.52;85.10;96243.63;4131784;28;6062;-66
2021/12/28 19:04:21;;;;;;;;;;;;;;;8.25;83.74;96242.59;4149800;28;6189;-67
2021/12/28 19:06:23;;;;;;;;;;;;;;;8.36;84.88;96250.00;4135764;28;5864;-69
2021/12/28 19:08:25;;;;;;;;;;;;;;;8.37;85.82;96267.44;4143658;28;6695;-69
2021/12/28 19:10:27;;;;;;;;;;;;;;;8.27;84.88;96256.38;4149309;28;5981;-69
2021/12/28 19:12:28;;;;;;;;;;;;;;;8.44;85.40;96258.56;4148546;28;5766;-69
2021/12/28 19:14:31;;;;;;;;;;;;;;;8.45;85.44;96259.38;4150686;28;5766;-69
2021/12/28 19:16:32;;;;;;;;;;;;;;;8.52;85.47;96265.53;4163130;23;5799;-68
2021/12/28 19:18:35;;;;;;;;;;;;;;;8.47;82.93;96260.00;4166904;28;5976;-68
2021/12/28 19:20:36;;;;;;;;;;;;;;;8.44;82.43;96263.03;4147305;28;5685;-69
2021/12/28 19:22:38;;;;;;;;;;;;;;;8.46;82.42;96253.91;4165560;28;5778;-67
2021/12/28 19:24:40;;;;;;;;;;;;;;;8.53;81.85;96261.88;4166411;28;5785;-67
2021/12/28 19:26:41;;;;;;;;;;;;;;;8.48;80.24;96269.53;4166318;28;5786;-68
2021/12/28 19:28:48;;;;;;;;;;;;;;;8.50;79.70;96278.09;4145445;28;5782;-67
2021/12/28 19:30:54;;;;;;;;;;;;;;;8.48;80.79;96269.53;4131453;28;5698;-66
2021/12/28 19:32:55;;;;;;;;;;;;;;;8.55;81.00;96272.22;4151896;28;5672;-67
2021/12/28 19:35:00;;;;;;;;;;;;;;;8.48;80.57;96280.06;4163990;28;5782;-68
2021/12/28 19:37:03;;;;;;;;;;;;;;;8.49;82.35;96281.69;4149033;28;5807;-68
2021/12/28 19:39:05;;;;;;;;;;;;;;;8.35;80.96;96277.34;4166433;28;5781;-68
2021/12/28 19:41:08;;;;;;;;;;;;;;;8.42;82.17;96275.59;4164992;28;5919;-68
2021/12/28 19:43:10;;;;;;;;;;;;;;;8.40;81.71;96273.16;4164639;28;5790;-68
2021/12/28 19:45:13;;;;;;;;;;;;;;;8.35;83.04;96269.44;4159528;28;5904;-69
2021/12/28 19:47:15;;;;;;;;;;;;;;;8.51;83.16;96276.25;4150458;28;5684;-69
2021/12/28 19:49:17;;;;;;;;;;;;;;;8.56;82.96;96260.69;4165169;28;5913;-69
2021/12/28 19:51:21;;;;;;;;;;;;;;;8.58;83.85;96263.94;4165810;28;5797;-69
2021/12/28 19:53:23;;;;;;;;;;;;;;;8.65;83.37;96256.88;4166392;28;5897;-69
2021/12/28 19:55:26;;;;;;;;;;;;;;;8.67;83.52;96253.03;4149020;28;5871;-68
2021/12/28 19:57:31;;;;;;;;;;;;;;;8.69;83.78;96258.13;4165044;28;5786;-69
2021/12/28 19:59:34;;;;;;;;;;;;;;;8.68;83.63;96244.13;4158593;28;5149;-68
2021/12/28 20:01:36;;;;;;;;;;;;;;;8.72;83.81;96244.53;4161844;28;5786;-69
2021/12/28 20:03:41;;;;;;;;;;;;;;;8.73;83.96;96241.75;4155520;28;5996;-70
2021/12/28 20:05:43;;;;;;;;;;;;;;;8.75;83.98;96242.34;4159911;28;5801;-69
2021/12/28 20:07:46;;;;;;;;;;;;;;;8.73;83.61;96251.47;4164715;28;5934;-68
2021/12/28 20:09:48;;;;;;;;;;;;;;;8.67;84.12;96253.03;4166706;28;5876;-67
2021/12/28 20:11:51;;;;;;;;;;;;;;;8.67;84.43;96252.22;4149033;28;5676;-68
2021/12/28 20:13:53;;;;;;;;;;;;;;;8.66;84.43;96242.69;4166660;28;5785;-69
2021/12/28 20:15:58;;;;;;;;;;;;;;;8.55;84.29;96259.84;4142909;28;5836;-69
2021/12/28 20:18:00;;;;;;;;;;;;;;;8.55;84.27;96259.84;4149303;28;5786;-70
2021/12/28 20:20:05;;;;;;;;;;;;;;;8.55;84.96;96240.59;4150133;28;6478;-70
2021/12/28 20:22:08;;;;;;;;;;;;;;;8.48;85.09;96242.38;4149170;28;5154;-68
2021/12/28 20:24:13;;;;;;;;;;;;;;;8.21;86.49;96239.53;4151332;28;5766;-70
2021/12/28 20:26:17;;;;;;;;;;;;;;;8.31;85.98;96233.94;4150087;28;5767;-69
2021/12/28 20:28:20;;;;;;;;;;;;;;;8.32;86.15;96239.00;4143455;28;5799;-70
2021/12/28 20:30:24;;;;;;;;;;;;;;;8.15;86.26;96241.13;4151033;28;5777;-68
2021/12/28 20:32:26;;;;;;;;;;;;;;;8.10;86.33;96240.88;4148600;28;5776;-68
2021/12/28 20:34:28;;;;;;;;;;;;;;;8.15;86.28;96233.25;4147646;28;5882;-67